createdAt,value
2022-11-01T00:00:12.070Z,26.20
2022-11-01T00:02:58.386Z,20.65
2022-11-01T00:05:46.069Z,24.23
2022-11-01T00:08:31.010Z,22.88
2022-11-01T00:11:18.020Z,23.92
2022-11-01T00:14:03.373Z,23.95
2022-11-01T00:16:49.137Z,30.00
2022-11-01T00:19:34.416Z,22.15
2022-11-01T00:22:19.429Z,24.30
2022-11-01T00:25:04.952Z,26.45
2022-11-01T00:27:49.998Z,24.45
2022-11-01T00:30:39.538Z,25.90
2022-11-01T00:33:25.611Z,20.77
2022-11-01T00:36:11.086Z,27.13
2022-11-01T00:38:56.254Z,23.13
2022-11-01T00:41:41.827Z,26.45
2022-11-01T00:44:27.185Z,22.15
2022-11-01T00:47:12.504Z,31.98
2022-11-01T00:49:57.485Z,25.50
2022-11-01T00:52:42.566Z,22.25
2022-11-01T00:55:27.591Z,24.67
2022-11-01T00:58:13.185Z,29.90
2022-11-01T01:00:58.772Z,23.00
2022-11-01T01:03:44.282Z,21.08
2022-11-01T01:06:29.548Z,24.30
2022-11-01T01:09:15.297Z,24.58
2022-11-01T01:12:00.514Z,22.98
2022-11-01T01:14:45.556Z,27.30
2022-11-01T01:17:33.726Z,23.23
2022-11-01T01:20:20.484Z,24.27
2022-11-01T01:23:05.718Z,24.50
2022-11-01T01:25:51.474Z,24.67
2022-11-01T01:28:41.847Z,24.55
2022-11-01T01:31:30.077Z,24.17
2022-11-01T01:34:15.011Z,23.30
2022-11-01T01:37:00.383Z,20.80
2022-11-01T01:39:46.169Z,23.63
2022-11-01T01:42:38.953Z,23.70
2022-11-01T01:45:24.163Z,23.05
2022-11-01T01:48:19.099Z,19.65
2022-11-01T01:51:08.915Z,21.90
2022-11-01T01:53:55.743Z,23.17
2022-11-01T01:56:41.030Z,23.27
2022-11-01T01:59:26.910Z,18.15
2022-11-01T02:02:13.417Z,21.27
2022-11-01T02:05:03.925Z,22.60
2022-11-01T02:07:49.346Z,22.65
2022-11-01T02:10:34.934Z,22.52
2022-11-01T02:13:20.112Z,21.77
2022-11-01T02:16:17.290Z,21.33
2022-11-01T02:19:35.276Z,17.33
2022-11-01T02:22:33.330Z,22.02
2022-11-01T02:25:21.887Z,18.48
2022-11-01T02:28:35.842Z,20.92
2022-11-01T02:31:49.044Z,24.23
2022-11-01T02:34:50.256Z,24.02
2022-11-01T02:37:43.944Z,21.65
2022-11-01T02:40:46.577Z,23.20
2022-11-01T02:43:59.975Z,20.65
2022-11-01T02:46:47.280Z,18.88
2022-11-01T02:49:38.347Z,22.40
2022-11-01T02:52:25.345Z,18.90
2022-11-01T02:55:20.100Z,20.95
2022-11-01T02:58:24.992Z,23.80
2022-11-01T03:01:15.791Z,21.13
2022-11-01T03:04:02.192Z,17.95
2022-11-01T03:06:56.248Z,22.75
2022-11-01T03:09:42.270Z,21.30
2022-11-01T03:12:32.737Z,21.17
2022-11-01T03:15:27.128Z,21.27
2022-11-01T03:18:21.327Z,20.10
2022-11-01T03:21:11.800Z,20.73
2022-11-01T03:24:11.609Z,21.13
2022-11-01T03:27:26.268Z,20.67
2022-11-01T03:30:14.709Z,16.98
2022-11-01T03:33:00.402Z,18.55
2022-11-01T03:35:50.164Z,18.75
2022-11-01T03:38:39.875Z,23.90
2022-11-01T03:41:26.916Z,18.23
2022-11-01T03:44:13.552Z,24.20
2022-11-01T03:46:59.030Z,20.38
2022-11-01T03:49:44.013Z,19.10
2022-11-01T03:52:29.219Z,20.77
2022-11-01T03:55:15.681Z,24.10
2022-11-01T03:58:01.171Z,19.83
2022-11-01T04:00:47.187Z,25.52
2022-11-01T04:03:32.664Z,19.83
2022-11-01T04:06:17.578Z,25.45
2022-11-01T04:09:02.511Z,21.98
2022-11-01T04:11:47.855Z,23.63
2022-11-01T04:14:32.756Z,18.73
2022-11-01T04:17:18.299Z,20.35
2022-11-01T04:20:04.060Z,24.42
2022-11-01T04:22:49.144Z,19.88
2022-11-01T04:25:34.367Z,20.63
2022-11-01T04:28:19.548Z,24.00
2022-11-01T04:31:05.533Z,21.10
2022-11-01T04:33:50.458Z,21.75
2022-11-01T04:36:37.303Z,20.83
2022-11-01T04:39:22.611Z,20.05
2022-11-01T04:42:07.652Z,20.52
2022-11-01T04:44:52.857Z,19.73
2022-11-01T04:47:37.693Z,16.70
2022-11-01T04:50:22.557Z,19.02
2022-11-01T04:53:07.932Z,20.02
2022-11-01T04:55:53.148Z,18.77
2022-11-01T04:58:43.064Z,16.38
2022-11-01T05:01:31.355Z,17.70
2022-11-01T05:04:16.553Z,19.20
2022-11-01T05:07:01.972Z,20.23
2022-11-01T05:09:46.975Z,14.85
2022-11-01T05:12:32.502Z,18.98
2022-11-01T05:15:18.008Z,15.80
2022-11-01T05:18:04.124Z,17.05
2022-11-01T05:20:49.143Z,17.25
2022-11-01T05:23:33.996Z,19.05
2022-11-01T05:26:18.826Z,15.88
2022-11-01T05:29:08.714Z,13.40
2022-11-01T05:31:54.504Z,16.27
2022-11-01T05:34:39.714Z,16.92
2022-11-01T05:37:28.124Z,17.60
2022-11-01T05:40:13.575Z,18.70
2022-11-01T05:42:58.994Z,18.75
2022-11-01T05:45:44.237Z,18.52
2022-11-01T05:48:29.646Z,15.55
2022-11-01T05:51:14.695Z,16.73
2022-11-01T05:53:59.676Z,16.85
2022-11-01T05:56:44.746Z,16.17
2022-11-01T05:59:29.615Z,14.63
2022-11-01T06:02:15.148Z,13.82
2022-11-01T06:05:03.068Z,14.50
2022-11-01T06:07:48.505Z,14.55
2022-11-01T06:10:34.432Z,16.75
2022-11-01T06:13:19.925Z,15.52
2022-11-01T06:16:06.179Z,13.68
2022-11-01T06:18:51.219Z,14.57
2022-11-01T06:21:36.620Z,16.48
2022-11-01T06:24:21.628Z,14.00
2022-11-01T06:27:11.458Z,15.27
2022-11-01T06:29:57.607Z,16.10
2022-11-01T06:32:42.918Z,15.63
2022-11-01T06:35:28.369Z,15.95
2022-11-01T06:38:13.292Z,15.90
2022-11-01T06:40:58.402Z,13.80
2022-11-01T06:43:43.754Z,15.48
2022-11-01T06:46:29.035Z,16.00
2022-11-01T06:49:18.869Z,16.70
2022-11-01T06:52:05.242Z,18.73
2022-11-01T06:54:50.593Z,16.83
2022-11-01T06:57:36.087Z,14.10
2022-11-01T07:00:21.312Z,18.40
2022-11-01T07:03:10.120Z,16.80
2022-11-01T07:05:55.679Z,14.18
2022-11-01T07:08:40.504Z,17.80
2022-11-01T07:11:31.216Z,15.02
2022-11-01T07:14:16.940Z,14.63
2022-11-01T07:17:01.845Z,18.23
2022-11-01T07:19:47.463Z,14.55
2022-11-01T07:22:32.768Z,14.00
2022-11-01T07:25:17.689Z,14.93
2022-11-01T07:28:03.366Z,16.27
2022-11-01T07:30:53.345Z,13.65
2022-11-01T07:33:38.730Z,14.30
2022-11-01T07:36:23.622Z,17.92
2022-11-01T07:39:08.449Z,17.30
2022-11-01T07:41:53.567Z,14.90
2022-11-01T07:44:38.607Z,13.30
2022-11-01T07:47:23.456Z,15.82
2022-11-01T07:50:08.724Z,15.50
2022-11-01T07:53:05.197Z,15.18
2022-11-01T07:55:50.966Z,13.45
2022-11-01T07:58:35.880Z,15.85
2022-11-01T08:01:20.871Z,14.25
2022-11-01T08:04:06.210Z,13.98
2022-11-01T08:06:52.330Z,17.55
2022-11-01T08:09:37.569Z,15.52
2022-11-01T08:12:22.614Z,14.80
2022-11-01T08:15:08.097Z,14.82
2022-11-01T08:17:55.807Z,13.57
2022-11-01T08:20:41.146Z,13.55
2022-11-01T08:23:26.381Z,15.02
2022-11-01T08:26:11.819Z,9.07
2022-11-01T08:28:56.648Z,11.70
2022-11-01T08:31:41.905Z,8.93
2022-11-01T08:34:27.370Z,12.95
2022-11-01T08:37:12.657Z,12.50
2022-11-01T08:39:57.594Z,11.73
2022-11-01T08:42:42.379Z,22.70
2022-11-01T08:45:27.875Z,9.55
2022-11-01T08:48:13.665Z,11.48
2022-11-01T08:50:58.632Z,8.00
2022-11-01T08:53:44.099Z,9.57
2022-11-01T08:56:29.137Z,11.38
2022-11-01T08:59:14.099Z,9.85
2022-11-01T09:01:59.569Z,7.20
2022-11-01T09:04:44.809Z,7.60
2022-11-01T09:07:30.177Z,7.03
2022-11-01T09:10:16.504Z,5.75
2022-11-01T09:13:02.463Z,10.32
2022-11-01T09:15:48.325Z,12.65
2022-11-01T09:18:33.871Z,10.40
2022-11-01T09:21:18.984Z,8.32
2022-11-01T09:24:04.496Z,6.20
2022-11-01T09:26:49.736Z,6.40
2022-11-01T09:29:35.248Z,8.63
2022-11-01T09:32:20.519Z,10.70
2022-11-01T09:35:06.291Z,10.80
2022-11-01T09:37:57.605Z,10.43
2022-11-01T09:40:44.375Z,11.43
2022-11-01T09:43:32.731Z,11.52
2022-11-01T09:49:20.897Z,10.43
2022-11-01T09:52:06.484Z,12.23
2022-11-01T09:54:51.744Z,12.05
2022-11-01T09:57:44.126Z,11.07
2022-11-01T10:00:35.204Z,10.05
2022-11-01T10:03:35.933Z,10.48
2022-11-01T10:06:27.714Z,11.93
2022-11-01T10:09:37.960Z,12.18
2022-11-01T10:12:40.867Z,9.77
2022-11-01T10:16:00.157Z,21.05
2022-11-01T10:19:08.273Z,11.43
2022-11-01T10:21:58.624Z,13.93
2022-11-01T10:24:49.828Z,10.00
2022-11-01T10:27:55.324Z,11.27
2022-11-01T10:30:46.796Z,12.13
2022-11-01T10:33:35.162Z,13.13
2022-11-01T10:36:26.819Z,15.88
2022-11-01T10:42:41.147Z,13.02
2022-11-01T10:45:26.860Z,14.15
2022-11-01T10:48:19.685Z,17.55
2022-11-01T10:51:07.942Z,11.73
2022-11-01T10:53:58.181Z,12.18
2022-11-01T10:56:46.679Z,12.82
2022-11-01T10:59:40.181Z,11.15
2022-11-01T11:02:45.950Z,18.15
2022-11-01T11:05:32.742Z,14.80
2022-11-01T11:08:20.808Z,17.83
2022-11-01T11:11:12.213Z,17.42
2022-11-01T11:14:00.099Z,14.85
2022-11-01T11:16:49.999Z,17.52
2022-11-01T11:19:36.449Z,18.75
2022-11-01T11:22:23.041Z,18.02
2022-11-01T11:25:22.173Z,16.58
2022-11-01T11:28:22.389Z,15.60
2022-11-01T11:31:36.957Z,18.35
2022-11-01T11:34:33.320Z,24.10
2022-11-01T11:37:22.085Z,17.33
2022-11-01T11:40:17.309Z,20.35
2022-11-01T11:43:21.469Z,26.33
2022-11-01T11:46:16.671Z,15.35
2022-11-01T11:49:02.325Z,15.50
2022-11-01T11:51:47.350Z,20.65
2022-11-01T11:54:33.589Z,21.70
2022-11-01T11:57:24.581Z,18.17
2022-11-01T12:00:22.231Z,18.13
2022-11-01T12:03:10.583Z,19.20
2022-11-01T12:06:01.759Z,15.38
2022-11-01T12:08:50.215Z,21.75
2022-11-01T12:11:44.758Z,17.63
2022-11-01T12:14:33.234Z,14.68
2022-11-01T12:17:45.148Z,21.48
2022-11-01T12:20:36.630Z,17.25
2022-11-01T12:23:40.061Z,17.88
2022-11-01T12:26:27.239Z,18.67
2022-11-01T12:29:52.095Z,18.67
2022-11-01T12:32:58.064Z,20.58
2022-11-01T12:35:45.038Z,17.15
2022-11-01T12:39:03.537Z,19.02
2022-11-01T12:41:53.877Z,14.30
2022-11-01T12:44:47.955Z,20.98
2022-11-01T12:47:46.525Z,19.40
2022-11-01T12:50:49.940Z,16.75
2022-11-01T12:53:43.199Z,17.05
2022-11-01T12:56:28.418Z,17.65
2022-11-01T12:59:20.754Z,16.33
2022-11-01T13:02:30.853Z,18.58
2022-11-01T13:05:21.416Z,17.33
2022-11-01T13:08:16.361Z,21.70
2022-11-01T13:11:25.046Z,20.45
2022-11-01T13:14:47.559Z,16.30
2022-11-01T13:18:02.052Z,18.40
2022-11-01T13:20:47.078Z,15.10
2022-11-01T13:23:49.044Z,13.75
2022-11-01T13:26:40.757Z,22.13
2022-11-01T13:30:01.484Z,17.75
2022-11-01T13:32:58.381Z,18.20
2022-11-01T13:36:16.263Z,19.52
2022-11-01T13:39:13.487Z,19.73
2022-11-01T13:42:11.650Z,16.15
2022-11-01T13:45:28.898Z,15.02
2022-11-01T13:48:44.454Z,20.52
2022-11-01T13:51:53.979Z,21.10
2022-11-01T13:54:54.318Z,11.85
2022-11-01T13:57:44.866Z,17.38
2022-11-01T14:00:43.208Z,18.38
2022-11-01T14:03:33.147Z,14.20
2022-11-01T14:06:26.955Z,17.85
2022-11-01T14:09:24.513Z,14.55
2022-11-01T14:12:29.050Z,15.32
2022-11-01T14:15:21.718Z,15.95
2022-11-01T14:18:08.152Z,17.90
2022-11-01T14:20:54.484Z,15.38
2022-11-01T14:23:42.619Z,12.27
2022-11-01T14:26:50.444Z,16.15
2022-11-01T14:29:35.398Z,16.50
2022-11-01T14:32:23.901Z,13.82
2022-11-01T14:35:12.140Z,13.60
2022-11-01T14:38:02.247Z,17.05
2022-11-01T14:40:51.688Z,15.40
2022-11-01T14:43:51.394Z,17.63
2022-11-01T14:46:46.623Z,14.10
2022-11-01T14:49:44.092Z,13.07
2022-11-01T14:52:41.392Z,14.57
2022-11-01T14:55:34.829Z,14.23
2022-11-01T14:58:22.856Z,12.13
2022-11-01T15:01:13.517Z,17.13
2022-11-01T15:04:00.320Z,14.23
2022-11-01T15:06:45.403Z,13.82
2022-11-01T15:09:31.857Z,16.10
2022-11-01T15:12:17.131Z,16.42
2022-11-01T15:15:03.297Z,12.57
2022-11-01T15:18:15.946Z,12.75
2022-11-01T15:21:01.206Z,14.27
2022-11-01T15:23:48.504Z,16.35
2022-11-01T15:26:33.955Z,16.20
2022-11-01T15:29:22.804Z,14.20
2022-11-01T15:32:22.384Z,16.67
2022-11-01T15:35:21.945Z,13.63
2022-11-01T15:38:20.791Z,11.98
2022-11-01T15:41:20.601Z,15.45
2022-11-01T15:44:06.415Z,14.07
2022-11-01T15:46:55.288Z,16.83
2022-11-01T15:50:02.860Z,12.38
2022-11-01T15:52:48.311Z,11.52
2022-11-01T15:55:37.711Z,11.85
2022-11-01T15:58:30.120Z,17.45
2022-11-01T16:01:20.185Z,18.33
2022-11-01T16:04:09.939Z,15.13
2022-11-01T16:07:02.604Z,13.30
2022-11-01T16:09:57.710Z,14.13
2022-11-01T16:12:45.363Z,16.13
2022-11-01T16:15:32.556Z,17.90
2022-11-01T16:18:24.115Z,13.90
2022-11-01T16:21:18.420Z,16.15
2022-11-01T16:24:11.649Z,18.02
2022-11-01T16:26:59.460Z,11.93
2022-11-01T16:29:47.599Z,14.57
2022-11-01T16:32:33.076Z,13.20
2022-11-01T16:36:07.986Z,15.05
2022-11-01T16:38:53.767Z,13.02
2022-11-01T16:41:41.025Z,15.20
2022-11-01T16:44:26.672Z,13.50
2022-11-01T16:47:16.258Z,13.50
2022-11-01T16:50:01.224Z,14.55
2022-11-01T16:52:46.942Z,15.50
2022-11-01T16:55:33.579Z,16.23
2022-11-01T16:58:26.384Z,15.27
2022-11-01T17:01:20.942Z,14.68
2022-11-01T17:04:06.364Z,17.63
2022-11-01T17:06:51.512Z,10.75
2022-11-01T17:09:36.385Z,13.63
2022-11-01T17:12:21.314Z,15.90
2022-11-01T17:15:06.913Z,16.17
2022-11-01T17:17:52.292Z,16.13
2022-11-01T17:20:39.194Z,17.52
2022-11-01T17:23:25.705Z,15.15
2022-11-01T17:26:11.826Z,16.20
2022-11-01T17:28:57.001Z,15.48
2022-11-01T17:31:42.165Z,22.38
2022-11-01T17:34:27.554Z,15.25
2022-11-01T17:37:15.961Z,18.00
2022-11-01T17:40:01.566Z,18.80
2022-11-01T17:42:47.021Z,19.35
2022-11-01T17:45:32.200Z,17.17
2022-11-01T17:48:18.757Z,15.80
2022-11-01T17:51:03.841Z,15.57
2022-11-01T17:53:56.476Z,15.07
2022-11-01T17:56:41.608Z,15.20
2022-11-01T17:59:26.983Z,16.23
2022-11-01T18:02:11.865Z,15.05
2022-11-01T18:04:57.165Z,13.77
2022-11-01T18:07:44.535Z,17.05
2022-11-01T18:10:38.438Z,14.02
2022-11-01T18:13:29.835Z,17.33
2022-11-01T18:16:26.672Z,13.35
2022-11-01T18:19:19.237Z,13.35
2022-11-01T18:22:16.930Z,11.82
2022-11-01T18:25:22.257Z,15.07
2022-11-01T18:28:20.526Z,13.65
2022-11-01T18:31:25.625Z,14.18
2022-11-01T18:34:22.740Z,14.77
2022-11-01T18:37:21.442Z,11.20
2022-11-01T18:40:18.605Z,13.18
2022-11-01T18:43:07.957Z,14.88
2022-11-01T18:46:22.756Z,13.98
2022-11-01T18:49:01.050Z,12.80
2022-11-01T18:51:46.274Z,13.25
2022-11-01T18:54:31.409Z,14.07
2022-11-01T18:57:17.824Z,13.02
2022-11-01T19:00:12.450Z,14.82
2022-11-01T19:02:59.650Z,16.10
2022-11-01T19:05:44.835Z,13.88
2022-11-01T19:08:29.805Z,9.90
2022-11-01T19:11:16.155Z,15.00
2022-11-01T19:14:02.902Z,15.43
2022-11-01T19:16:47.941Z,19.27
2022-11-01T19:19:36.443Z,10.48
2022-11-01T19:22:31.838Z,15.20
2022-11-01T19:25:27.949Z,14.27
2022-11-01T19:28:34.931Z,16.27
2022-11-01T19:31:30.820Z,13.32
2022-11-01T19:34:25.448Z,10.52
2022-11-01T19:37:31.823Z,13.20
2022-11-01T19:40:28.203Z,12.35
2022-11-01T19:43:16.042Z,12.13
2022-11-01T19:46:01.372Z,15.90
2022-11-01T19:48:47.649Z,15.10
2022-11-01T19:51:32.693Z,13.70
2022-11-01T19:54:18.168Z,12.75
2022-11-01T19:57:17.441Z,14.00
2022-11-01T20:00:18.875Z,14.82
2022-11-01T20:03:14.195Z,13.73
2022-11-01T20:05:59.731Z,14.63
2022-11-01T20:08:45.074Z,12.13
2022-11-01T20:11:31.728Z,16.23
2022-11-01T20:14:17.008Z,12.73
2022-11-01T20:17:02.776Z,13.43
2022-11-01T20:19:47.675Z,22.33
2022-11-01T20:22:34.128Z,17.98
2022-11-01T20:25:19.523Z,12.40
2022-11-01T20:28:06.073Z,16.65
2022-11-01T20:30:51.849Z,17.27
2022-11-01T20:33:36.947Z,14.52
2022-11-01T20:36:22.068Z,15.63
2022-11-01T20:39:09.219Z,18.13
2022-11-01T20:41:56.729Z,15.75
2022-11-01T20:44:42.132Z,20.65
2022-11-01T20:47:27.428Z,13.38
2022-11-01T20:50:15.011Z,20.27
2022-11-01T20:53:00.057Z,15.95
2022-11-01T20:55:45.624Z,17.10
2022-11-01T20:58:30.981Z,19.63
2022-11-01T21:01:18.067Z,14.02
2022-11-01T21:04:10.675Z,15.80
2022-11-01T21:06:56.138Z,19.52
2022-11-01T21:09:42.945Z,14.88
2022-11-01T21:12:48.211Z,18.25
2022-11-01T21:15:39.569Z,15.43
2022-11-01T21:18:32.622Z,19.35
2022-11-01T21:21:17.745Z,14.65
2022-11-01T21:24:25.700Z,18.83
2022-11-01T21:27:10.922Z,18.38
2022-11-01T21:30:15.111Z,16.85
2022-11-01T21:33:00.254Z,16.60
2022-11-01T21:35:45.559Z,19.90
2022-11-01T21:38:35.505Z,19.70
2022-11-01T21:41:23.286Z,19.13
2022-11-01T21:44:23.592Z,18.52
2022-11-01T21:47:08.511Z,16.33
2022-11-01T21:49:54.053Z,14.85
2022-11-01T21:52:39.397Z,19.20
2022-11-01T21:55:24.251Z,21.75
2022-11-01T21:58:09.807Z,19.52
2022-11-01T22:00:55.365Z,18.27
2022-11-01T22:03:40.524Z,18.38
2022-11-01T22:06:26.043Z,18.42
2022-11-01T22:09:11.552Z,16.08
2022-11-01T22:11:57.181Z,15.13
2022-11-01T22:14:42.270Z,17.38
2022-11-01T22:17:27.632Z,17.33
2022-11-01T22:20:12.581Z,11.13
2022-11-01T22:22:57.545Z,18.48
2022-11-01T22:25:42.614Z,20.23
2022-11-01T22:28:27.416Z,17.95
2022-11-01T22:31:13.209Z,18.45
2022-11-01T22:33:58.413Z,18.92
2022-11-01T22:36:43.785Z,18.10
2022-11-01T22:39:29.785Z,17.40
2022-11-01T22:42:15.981Z,14.85
2022-11-01T22:45:00.859Z,15.30
2022-11-01T22:47:46.565Z,14.38
2022-11-01T22:50:31.489Z,17.40
2022-11-01T22:53:22.396Z,23.15
2022-11-01T22:56:11.328Z,15.90
2022-11-01T22:58:56.717Z,18.80
2022-11-01T23:01:42.876Z,17.50
2022-11-01T23:04:28.083Z,16.88
2022-11-01T23:07:44.745Z,18.50
2022-11-01T23:10:33.736Z,17.98
2022-11-01T23:13:30.114Z,18.90
2022-11-01T23:16:45.015Z,16.17
2022-11-01T23:19:30.330Z,18.27
2022-11-01T23:22:19.707Z,18.48
2022-11-01T23:25:05.898Z,19.58
2022-11-01T23:27:50.990Z,16.70
2022-11-01T23:30:36.414Z,17.65
2022-11-01T23:33:22.253Z,14.25
2022-11-01T23:36:40.321Z,18.40
2022-11-01T23:39:32.900Z,17.75
2022-11-01T23:42:21.087Z,17.90
2022-11-01T23:45:21.860Z,17.77
2022-11-01T23:48:09.070Z,14.40
2022-11-01T23:50:54.065Z,18.58
2022-11-01T23:53:40.527Z,15.55
2022-11-01T23:56:25.861Z,22.85
2022-11-01T23:59:11.040Z,18.25
